createdAt,value
2016-05-23T00:00:40.919Z,0
2016-05-23T00:01:40.750Z,0
2016-05-23T00:02:40.737Z,0
2016-05-23T00:03:40.723Z,0
2016-05-23T00:04:40.711Z,0
2016-05-23T00:05:40.698Z,0
2016-05-23T00:06:40.685Z,0
2016-05-23T00:07:40.672Z,0
2016-05-23T00:08:40.659Z,0
2016-05-23T00:09:40.662Z,0
2016-05-23T00:10:40.633Z,0
2016-05-23T00:11:40.636Z,0
2016-05-23T00:12:40.780Z,0
2016-05-23T00:13:40.766Z,0
2016-05-23T00:14:40.721Z,0
2016-05-23T00:15:40.740Z,0
2016-05-23T00:16:40.728Z,0
2016-05-23T00:17:40.715Z,0
2016-05-23T00:18:40.701Z,0
2016-05-23T00:19:40.533Z,0
2016-05-23T00:20:40.676Z,0
2016-05-23T00:21:40.679Z,0
2016-05-23T00:22:40.696Z,0
2016-05-23T00:23:40.497Z,0
2016-05-23T00:24:40.624Z,0
2016-05-23T00:25:40.470Z,0
2016-05-23T00:26:40.458Z,0
2016-05-23T00:27:40.600Z,0
2016-05-23T00:28:40.432Z,0
2016-05-23T00:29:40.278Z,0
2016-05-23T00:30:40.265Z,0
2016-05-23T00:31:40.565Z,0
2016-05-23T00:32:40.551Z,0
2016-05-23T00:33:40.539Z,0
2016-05-23T00:34:40.511Z,0
2016-05-23T00:35:40.372Z,0
2016-05-23T00:36:40.500Z,0
2016-05-23T00:37:40.331Z,0
2016-05-23T00:38:40.334Z,0
2016-05-23T00:39:40.320Z,0
2016-05-23T00:40:40.448Z,0
2016-05-23T00:41:40.466Z,0
2016-05-23T00:42:40.266Z,0
2016-05-23T00:43:40.253Z,0
2016-05-23T00:44:40.319Z,0
2016-05-23T00:45:40.399Z,0
2016-05-23T00:46:40.230Z,0
2016-05-23T00:47:40.374Z,0
2016-05-23T00:48:40.204Z,0
2016-05-23T00:49:40.347Z,0
2016-05-23T00:50:40.350Z,0
2016-05-23T00:51:40.338Z,0
2016-05-23T00:52:40.309Z,0
2016-05-23T00:53:40.311Z,0
2016-05-23T00:54:40.299Z,0
2016-05-23T00:55:40.301Z,0
2016-05-23T00:56:40.272Z,0
2016-05-23T00:57:40.276Z,0
2016-05-23T00:58:40.121Z,0
2016-05-23T00:59:40.781Z,0
2016-05-23T01:00:40.236Z,0
2016-05-23T01:01:40.052Z,0
2016-05-23T01:02:40.054Z,0
2016-05-23T01:03:40.181Z,0
2016-05-23T01:04:40.045Z,0
2016-05-23T01:05:40.172Z,0
2016-05-23T01:06:40.003Z,0
2016-05-23T01:07:40.145Z,0
2016-05-23T01:08:40.133Z,0
2016-05-23T01:09:39.964Z,0
2016-05-23T01:10:39.794Z,0
2016-05-23T01:11:40.094Z,0
2016-05-23T01:12:40.097Z,0
2016-05-23T01:13:40.100Z,0
2016-05-23T01:14:40.664Z,0
2016-05-23T01:15:40.058Z,0
2016-05-23T01:16:40.045Z,0
2016-05-23T01:17:40.032Z,0
2016-05-23T01:18:40.019Z,0
2016-05-23T01:19:39.850Z,0
2016-05-23T01:20:39.994Z,0
2016-05-23T01:21:39.980Z,0
2016-05-23T01:22:39.983Z,0
2016-05-23T01:23:39.970Z,0
2016-05-23T01:24:39.941Z,0
2016-05-23T01:25:39.929Z,0
2016-05-23T01:26:39.618Z,0
2016-05-23T01:27:39.904Z,0
2016-05-23T01:28:39.906Z,0
2016-05-23T01:29:40.126Z,0
2016-05-23T01:30:39.879Z,0
2016-05-23T01:31:39.867Z,0
2016-05-23T01:32:39.870Z,0
2016-05-23T01:33:39.840Z,0
2016-05-23T01:34:39.843Z,0
2016-05-23T01:35:39.815Z,0
2016-05-23T01:36:39.802Z,0
2016-05-23T01:37:39.805Z,0
2016-05-23T01:38:39.791Z,0
2016-05-23T01:39:39.779Z,0
2016-05-23T01:40:39.766Z,0
2016-05-23T01:41:39.597Z,0
2016-05-23T01:42:39.584Z,0
2016-05-23T01:43:39.586Z,0
2016-05-23T01:44:40.324Z,0
2016-05-23T01:45:39.702Z,0
2016-05-23T01:46:39.735Z,0
2016-05-23T01:47:39.691Z,0
2016-05-23T01:48:39.663Z,0
2016-05-23T01:49:39.665Z,0
2016-05-23T01:50:39.527Z,0
2016-05-23T01:51:39.639Z,0
2016-05-23T01:52:39.470Z,0
2016-05-23T01:53:39.613Z,0
2016-05-23T01:54:39.601Z,0
2016-05-23T01:55:39.432Z,0
2016-05-23T01:56:39.574Z,0
2016-05-23T01:57:39.577Z,0
2016-05-23T01:58:39.580Z,0
2016-05-23T01:59:40.270Z,0
2016-05-23T02:00:39.554Z,0
2016-05-23T02:01:39.384Z,0
2016-05-23T02:02:39.357Z,0
2016-05-23T02:03:39.515Z,0
2016-05-23T02:04:39.486Z,0
2016-05-23T02:05:39.177Z,0
2016-05-23T02:06:39.304Z,0
2016-05-23T02:07:39.447Z,0
2016-05-23T02:08:39.451Z,0
2016-05-23T02:09:39.438Z,0
2016-05-23T02:10:39.440Z,0
2016-05-23T02:11:39.412Z,0
2016-05-23T02:12:39.399Z,0
2016-05-23T02:13:39.213Z,0
2016-05-23T02:14:40.467Z,0
2016-05-23T02:15:39.360Z,0
2016-05-23T02:16:39.222Z,0
2016-05-23T02:17:39.349Z,0
2016-05-23T02:18:39.321Z,0
2016-05-23T02:19:39.308Z,0
2016-05-23T02:20:39.311Z,0
2016-05-23T02:21:39.283Z,0
2016-05-23T02:22:39.144Z,0
2016-05-23T02:23:39.272Z,0
2016-05-23T02:24:39.713Z,0
2016-05-23T02:25:39.246Z,0
2016-05-23T02:26:39.233Z,0
2016-05-23T02:27:39.065Z,0
2016-05-23T02:28:39.207Z,0
2016-05-23T02:29:39.663Z,0
2016-05-23T02:30:39.182Z,0
2016-05-23T02:31:39.168Z,0
2016-05-23T02:32:39.157Z,0
2016-05-23T02:33:39.143Z,0
2016-05-23T02:34:39.130Z,0
2016-05-23T02:35:39.117Z,0
2016-05-23T02:36:39.103Z,0
2016-05-23T02:37:39.107Z,0
2016-05-23T02:38:39.094Z,0
2016-05-23T02:39:39.065Z,0
2016-05-23T02:40:38.911Z,0
2016-05-23T02:41:38.899Z,0
2016-05-23T02:42:38.870Z,0
2016-05-23T02:43:39.029Z,0
2016-05-23T02:44:39.422Z,0
2016-05-23T02:45:39.003Z,0
2016-05-23T02:46:38.991Z,0
2016-05-23T02:47:38.977Z,0
2016-05-23T02:48:38.964Z,0
2016-05-23T02:49:38.795Z,0
2016-05-23T02:50:38.955Z,0
2016-05-23T02:51:38.441Z,0
2016-05-23T02:52:38.428Z,0
2016-05-23T02:53:38.743Z,0
2016-05-23T02:54:38.730Z,0
2016-05-23T02:55:38.749Z,0
2016-05-23T02:56:38.877Z,0
2016-05-23T02:57:38.864Z,0
2016-05-23T02:58:38.835Z,0
2016-05-23T02:59:39.165Z,0
2016-05-23T03:00:38.809Z,0
2016-05-23T03:01:38.640Z,0
2016-05-23T03:02:38.784Z,0
2016-05-23T03:03:38.457Z,4
2016-05-23T03:04:38.773Z,4
2016-05-23T03:05:38.744Z,4
2016-05-23T03:06:38.747Z,0
2016-05-23T03:07:38.750Z,4
2016-05-23T03:08:38.565Z,4
2016-05-23T03:09:38.536Z,4
2016-05-23T03:10:38.680Z,8
2016-05-23T03:11:38.370Z,4
2016-05-23T03:12:38.498Z,8
2016-05-23T03:13:38.344Z,12
2016-05-23T03:14:38.675Z,8
2016-05-23T03:15:38.631Z,12
2016-05-23T03:16:38.618Z,16
2016-05-23T03:17:38.449Z,16
2016-05-23T03:18:38.591Z,20
2016-05-23T03:19:38.580Z,24
2016-05-23T03:20:38.566Z,28
2016-05-23T03:21:38.397Z,28
2016-05-23T03:22:38.541Z,32
2016-05-23T03:23:38.371Z,32
2016-05-23T03:24:38.514Z,36
2016-05-23T03:25:38.346Z,40
2016-05-23T03:26:38.177Z,48
2016-05-23T03:27:38.476Z,48
2016-05-23T03:28:38.149Z,52
2016-05-23T03:29:38.012Z,56
2016-05-23T03:30:38.437Z,60
2016-05-23T03:31:38.424Z,64
2016-05-23T03:32:38.410Z,76
2016-05-23T03:33:38.398Z,80
2016-05-23T03:34:38.228Z,84
2016-05-23T03:35:38.373Z,80
2016-05-23T03:36:38.375Z,84
2016-05-23T03:37:38.362Z,92
2016-05-23T03:38:38.192Z,100
2016-05-23T03:39:38.336Z,88
2016-05-23T03:40:38.307Z,104
2016-05-23T03:41:38.310Z,100
2016-05-23T03:42:37.984Z,116
2016-05-23T03:43:38.284Z,156
2016-05-23T03:44:37.975Z,188
2016-05-23T03:45:38.258Z,208
2016-05-23T03:46:38.245Z,248
2016-05-23T03:47:38.232Z,292
2016-05-23T03:48:38.204Z,288
2016-05-23T03:49:38.050Z,264
2016-05-23T03:50:38.194Z,268
2016-05-23T03:51:38.181Z,268
2016-05-23T03:52:38.168Z,284
2016-05-23T03:53:38.139Z,280
2016-05-23T03:54:38.142Z,260
2016-05-23T03:55:38.130Z,332
2016-05-23T03:56:38.116Z,316
2016-05-23T03:57:38.103Z,312
2016-05-23T03:58:37.934Z,380
2016-05-23T03:59:38.296Z,428
2016-05-23T04:00:38.065Z,368
2016-05-23T04:01:38.051Z,380
2016-05-23T04:02:38.038Z,400
2016-05-23T04:03:37.869Z,500
2016-05-23T04:04:37.857Z,480
2016-05-23T04:05:37.999Z,508
2016-05-23T04:06:37.987Z,612
2016-05-23T04:07:37.974Z,600
2016-05-23T04:08:37.962Z,652
2016-05-23T04:09:37.948Z,780
2016-05-23T04:10:37.779Z,792
2016-05-23T04:11:37.765Z,948
2016-05-23T04:12:37.612Z,864
2016-05-23T04:13:37.740Z,1016
2016-05-23T04:14:38.149Z,1060
2016-05-23T04:15:37.870Z,1028
2016-05-23T04:16:37.701Z,976
2016-05-23T04:17:37.861Z,892
2016-05-23T04:18:37.519Z,1032
2016-05-23T04:19:37.819Z,952
2016-05-23T04:20:37.806Z,936
2016-05-23T04:21:37.792Z,1072
2016-05-23T04:22:37.780Z,1092
2016-05-23T04:23:37.767Z,1056
2016-05-23T04:24:37.754Z,1116
2016-05-23T04:25:37.741Z,1392
2016-05-23T04:26:37.728Z,1508
2016-05-23T04:27:37.716Z,1616
2016-05-23T04:28:37.702Z,1800
2016-05-23T04:29:37.689Z,1964
2016-05-23T04:30:37.676Z,1948
2016-05-23T04:31:37.663Z,2052
2016-05-23T04:32:37.493Z,2136
2016-05-23T04:33:37.637Z,2096
2016-05-23T04:34:37.624Z,2108
2016-05-23T04:35:37.455Z,2100
2016-05-23T04:36:37.599Z,2204
2016-05-23T04:37:37.585Z,1944
2016-05-23T04:38:37.573Z,1884
2016-05-23T04:39:37.560Z,1928
2016-05-23T04:40:37.531Z,1588
2016-05-23T04:41:37.378Z,1428
2016-05-23T04:42:37.537Z,1320
2016-05-23T04:43:37.509Z,1624
2016-05-23T04:44:37.433Z,1732
2016-05-23T04:45:37.498Z,1640
2016-05-23T04:46:37.470Z,2080
2016-05-23T04:47:37.456Z,2316
2016-05-23T04:48:37.444Z,1972
2016-05-23T04:49:37.431Z,2080
2016-05-23T04:50:37.418Z,2292
2016-05-23T04:51:37.406Z,2208
2016-05-23T04:52:37.391Z,2096
2016-05-23T04:53:37.379Z,2580
2016-05-23T04:54:37.366Z,2596
2016-05-23T04:55:37.338Z,2828
2016-05-23T04:56:37.341Z,2636
2016-05-23T04:57:37.328Z,2556
2016-05-23T04:58:37.002Z,2832
2016-05-23T04:59:38.238Z,3044
2016-05-23T05:00:36.977Z,2924
2016-05-23T05:01:37.119Z,2652
2016-05-23T05:02:37.263Z,3020
2016-05-23T05:03:37.109Z,3044
2016-05-23T05:04:37.237Z,2864
2016-05-23T05:05:37.224Z,3016
2016-05-23T05:06:37.211Z,3200
2016-05-23T05:07:37.198Z,3084
2016-05-23T05:08:37.044Z,2928
2016-05-23T05:09:37.172Z,3216
2016-05-23T05:10:37.159Z,3032
2016-05-23T05:11:37.146Z,3216
2016-05-23T05:12:36.977Z,3600
2016-05-23T05:13:37.136Z,3392
2016-05-23T05:14:37.467Z,3196
2016-05-23T05:15:37.156Z,2936
2016-05-23T05:16:36.957Z,3116
2016-05-23T05:17:37.084Z,3104
2016-05-23T05:18:36.900Z,3040
2016-05-23T05:19:37.058Z,2748
2016-05-23T05:20:37.046Z,3392
2016-05-23T05:21:36.876Z,2676
2016-05-23T05:22:37.003Z,3100
2016-05-23T05:23:36.992Z,3300
2016-05-23T05:24:36.962Z,3640
2016-05-23T05:25:36.964Z,3200
2016-05-23T05:26:36.953Z,3464
2016-05-23T05:27:36.470Z,3172
2016-05-23T05:28:36.927Z,3428
2016-05-23T05:29:36.805Z,3424
2016-05-23T05:30:36.900Z,3796
2016-05-23T05:31:36.888Z,3776
2016-05-23T05:32:36.874Z,4380
2016-05-23T05:33:36.877Z,3704
2016-05-23T05:34:36.693Z,4228
2016-05-23T05:35:36.696Z,4112
2016-05-23T05:36:37.994Z,3776
2016-05-23T05:37:36.810Z,3344
2016-05-23T05:38:36.797Z,3032
2016-05-23T05:39:36.800Z,3196
2016-05-23T05:40:36.787Z,3008
2016-05-23T05:41:36.758Z,3396
2016-05-23T05:42:36.746Z,3560
2016-05-23T05:43:36.576Z,3828
2016-05-23T05:44:36.798Z,3652
2016-05-23T05:45:36.550Z,3740
2016-05-23T05:46:36.725Z,3592
2016-05-23T05:47:36.524Z,4464
2016-05-23T05:48:36.511Z,4404
2016-05-23T05:49:36.654Z,4640
2016-05-23T05:50:36.642Z,4532
2016-05-23T05:51:36.645Z,4412
2016-05-23T05:52:36.491Z,3604
2016-05-23T05:53:36.603Z,4264
2016-05-23T05:54:36.590Z,4256
2016-05-23T05:55:36.592Z,4140
2016-05-23T05:56:36.564Z,4136
2016-05-23T05:57:36.551Z,4232
2016-05-23T05:58:36.383Z,4576
2016-05-23T05:59:36.900Z,4544
2016-05-23T06:00:36.528Z,4304
2016-05-23T06:01:36.359Z,3932
2016-05-23T06:02:36.487Z,4284
2016-05-23T06:03:36.317Z,4724
2016-05-23T06:04:36.508Z,4820
2016-05-23T06:05:36.292Z,4952
2016-05-23T06:06:36.450Z,4464
2016-05-23T06:07:36.281Z,4220
2016-05-23T06:08:36.409Z,3892
2016-05-23T06:09:36.396Z,3832
2016-05-23T06:10:36.227Z,4096
2016-05-23T06:11:36.401Z,3616
2016-05-23T06:12:36.201Z,3356
2016-05-23T06:13:36.203Z,3880
2016-05-23T06:14:36.332Z,3652
2016-05-23T06:15:36.334Z,3448
2016-05-23T06:16:36.337Z,3676
2016-05-23T06:17:36.309Z,3376
2016-05-23T06:18:36.124Z,3076
2016-05-23T06:19:36.142Z,3124
2016-05-23T06:20:36.254Z,3740
2016-05-23T06:21:36.241Z,4008
2016-05-23T06:22:36.228Z,3356
2016-05-23T06:23:36.214Z,3144
2016-05-23T06:24:35.733Z,3276
2016-05-23T06:25:36.205Z,3240
2016-05-23T06:26:35.879Z,2752
2016-05-23T06:27:36.163Z,2652
2016-05-23T06:28:36.181Z,2604
2016-05-23T06:29:36.762Z,2772
2016-05-23T06:30:36.125Z,2948
2016-05-23T06:31:36.111Z,3264
2016-05-23T06:32:36.099Z,3084
2016-05-23T06:33:35.930Z,3148
2016-05-23T06:34:36.073Z,3092
2016-05-23T06:35:35.919Z,3028
2016-05-23T06:36:35.891Z,2920
2016-05-23T06:37:36.050Z,3344
2016-05-23T06:38:36.006Z,3432
2016-05-23T06:39:36.007Z,3812
2016-05-23T06:40:35.996Z,3992
2016-05-23T06:41:35.966Z,4248
2016-05-23T06:42:35.954Z,4840
2016-05-23T06:43:35.784Z,5112
2016-05-23T06:44:35.943Z,5396
2016-05-23T06:45:35.930Z,5468
2016-05-23T06:46:35.902Z,6016
2016-05-23T06:47:35.905Z,6428
2016-05-23T06:48:35.918Z,6700
2016-05-23T06:49:35.930Z,6824
2016-05-23T06:50:35.927Z,7128
2016-05-23T06:51:35.955Z,7656
2016-05-23T06:52:35.983Z,8036
2016-05-23T06:53:35.806Z,8304
2016-05-23T06:54:35.943Z,8436
2016-05-23T06:55:35.955Z,8620
2016-05-23T06:56:35.796Z,8784
2016-05-23T06:57:35.932Z,8924
2016-05-23T06:58:35.938Z,8724
2016-05-23T06:59:36.490Z,8612
2016-05-23T07:00:35.919Z,8296
2016-05-23T07:01:35.580Z,7664
2016-05-23T07:02:35.899Z,7536
2016-05-23T07:03:35.872Z,8172
2016-05-23T07:04:35.860Z,7608
2016-05-23T07:05:35.847Z,7396
2016-05-23T07:06:35.836Z,8684
2016-05-23T07:07:35.840Z,6776
2016-05-23T07:08:35.811Z,6292
2016-05-23T07:09:35.799Z,7364
2016-05-23T07:10:37.912Z,8012
2016-05-23T07:11:35.617Z,10412
2016-05-23T07:12:35.761Z,11212
2016-05-23T07:13:35.749Z,9940
2016-05-23T07:14:35.659Z,10060
2016-05-23T07:15:35.723Z,12440
2016-05-23T07:16:37.008Z,12916
2016-05-23T07:17:35.543Z,13524
2016-05-23T07:18:35.670Z,13460
2016-05-23T07:19:35.673Z,13532
2016-05-23T07:20:35.660Z,12332
2016-05-23T07:21:35.632Z,16276
2016-05-23T07:22:35.478Z,16628
2016-05-23T07:23:35.637Z,16448
2016-05-23T07:24:35.608Z,18520
2016-05-23T07:25:35.282Z,20448
2016-05-23T07:26:35.598Z,19968
2016-05-23T07:27:35.569Z,19872
2016-05-23T07:28:35.556Z,18724
2016-05-23T07:29:35.403Z,20000
2016-05-23T07:30:35.531Z,19036
2016-05-23T07:31:35.501Z,20448
2016-05-23T07:32:35.520Z,19968
2016-05-23T07:33:35.475Z,19456
2016-05-23T07:34:35.323Z,19712
2016-05-23T07:35:35.466Z,19392
2016-05-23T07:36:35.453Z,18232
2016-05-23T07:37:35.456Z,18256
2016-05-23T07:38:35.443Z,17880
2016-05-23T07:39:35.414Z,17552
2016-05-23T07:40:35.401Z,17660
2016-05-23T07:41:35.388Z,17804
2016-05-23T07:42:35.219Z,18040
2016-05-23T07:43:35.362Z,18076
2016-05-23T07:44:35.647Z,18408
2016-05-23T07:45:35.321Z,18824
2016-05-23T07:46:35.307Z,19520
2016-05-23T07:47:35.294Z,19904
2016-05-23T07:48:35.313Z,19872
2016-05-23T07:49:35.299Z,20448
2016-05-23T07:50:35.272Z,22336
2016-05-23T07:51:35.274Z,23104
2016-05-23T07:52:35.246Z,24288
2016-05-23T07:53:35.248Z,22912
2016-05-23T07:54:35.063Z,24800
2016-05-23T07:55:35.223Z,24288
2016-05-23T07:56:35.194Z,24352
2016-05-23T07:57:35.025Z,25696
2016-05-23T07:58:35.168Z,27424
2016-05-23T07:59:35.530Z,25888
2016-05-23T08:00:35.143Z,27616
2016-05-23T08:01:34.973Z,28896
2016-05-23T08:02:35.117Z,29856
2016-05-23T08:03:35.134Z,29312
2016-05-23T08:04:35.106Z,28928
2016-05-23T08:05:35.078Z,29920
2016-05-23T08:06:35.065Z,32224
2016-05-23T08:07:35.067Z,30848
2016-05-23T08:08:35.055Z,30048
2016-05-23T08:09:34.870Z,33248
2016-05-23T08:10:35.311Z,34880
2016-05-23T08:11:34.703Z,33024
2016-05-23T08:12:34.831Z,32640
2016-05-23T08:13:34.975Z,33888
2016-05-23T08:14:35.102Z,33056
2016-05-23T08:15:34.963Z,30176
2016-05-23T08:16:36.263Z,31328
2016-05-23T08:17:34.954Z,30432
2016-05-23T08:18:34.782Z,27520
2016-05-23T08:19:34.913Z,24256
2016-05-23T08:20:34.897Z,20352
2016-05-23T08:21:34.571Z,23136
2016-05-23T08:22:34.886Z,24768
2016-05-23T08:23:34.857Z,24704
2016-05-23T08:24:34.688Z,18968
2016-05-23T08:25:34.847Z,22368
2016-05-23T08:26:35.978Z,24224
2016-05-23T08:27:34.696Z,20896
2016-05-23T08:28:34.809Z,21824
2016-05-23T08:29:35.092Z,27008
2016-05-23T08:30:34.782Z,28832
2016-05-23T08:31:34.770Z,28992
2016-05-23T08:32:34.617Z,30464
2016-05-23T08:33:34.744Z,25824
2016-05-23T08:34:34.731Z,25664
2016-05-23T08:35:34.562Z,27328
2016-05-23T08:36:34.549Z,26912
2016-05-23T08:37:34.708Z,22976
2016-05-23T08:38:34.679Z,20288
2016-05-23T08:39:34.526Z,21056
2016-05-23T08:40:34.669Z,23712
2016-05-23T08:41:34.344Z,26816
2016-05-23T08:42:34.674Z,24928
2016-05-23T08:43:34.739Z,23424
2016-05-23T08:44:34.602Z,27520
2016-05-23T08:45:34.605Z,27808
2016-05-23T08:46:34.623Z,29440
2016-05-23T08:47:34.594Z,25824
2016-05-23T08:48:34.566Z,22816
2016-05-23T08:49:34.397Z,23424
2016-05-23T08:50:34.540Z,27136
2016-05-23T08:51:34.526Z,24928
2016-05-23T08:52:34.513Z,25024
2016-05-23T08:53:34.516Z,23456
2016-05-23T08:54:34.504Z,21504
2016-05-23T08:55:33.991Z,22560
2016-05-23T08:56:34.463Z,20160
2016-05-23T08:57:34.465Z,23040
2016-05-23T08:58:34.452Z,23776
2016-05-23T08:59:34.595Z,22720
2016-05-23T09:00:34.270Z,23008
2016-05-23T09:01:34.116Z,22336
2016-05-23T09:02:34.400Z,23392
2016-05-23T09:03:34.246Z,25280
2016-05-23T09:04:34.374Z,23872
2016-05-23T09:05:34.377Z,27616
2016-05-23T09:06:34.348Z,27680
2016-05-23T09:07:34.336Z,31424
2016-05-23T09:08:34.339Z,29216
2016-05-23T09:09:34.325Z,26752
2016-05-23T09:10:34.156Z,25792
2016-05-23T09:11:34.299Z,24704
2016-05-23T09:12:34.130Z,26304
2016-05-23T09:13:34.289Z,27680
2016-05-23T09:14:34.495Z,31296
2016-05-23T09:15:34.248Z,29664
2016-05-23T09:16:34.078Z,27776
2016-05-23T09:17:34.269Z,23680
2016-05-23T09:18:34.209Z,21248
2016-05-23T09:19:34.244Z,25344
2016-05-23T09:20:34.199Z,26304
2016-05-23T09:21:34.186Z,23232
2016-05-23T09:22:34.204Z,22848
2016-05-23T09:23:34.160Z,23488
2016-05-23T09:24:34.006Z,24288
2016-05-23T09:25:34.134Z,21856
2016-05-23T09:26:34.121Z,20928
2016-05-23T09:27:34.108Z,22080
2016-05-23T09:28:34.095Z,22080
2016-05-23T09:29:34.098Z,19744
2016-05-23T09:30:34.069Z,18228
2016-05-23T09:31:33.900Z,18608
2016-05-23T09:32:34.403Z,17172
2016-05-23T09:33:33.874Z,15480
2016-05-23T09:34:34.017Z,17208
2016-05-23T09:35:34.004Z,18060
2016-05-23T09:36:33.851Z,16412
2016-05-23T09:37:35.259Z,16560
2016-05-23T09:38:33.825Z,18572
2016-05-23T09:39:33.812Z,18640
2016-05-23T09:40:33.939Z,18012
2016-05-23T09:41:33.770Z,19872
2016-05-23T09:42:34.445Z,17936
2016-05-23T09:43:33.917Z,18424
2016-05-23T09:44:33.904Z,16628
2016-05-23T09:45:33.906Z,17508
2016-05-23T09:46:33.878Z,16472
2016-05-23T09:47:36.474Z,16484
2016-05-23T09:48:33.853Z,18020
2016-05-23T09:49:33.699Z,18668
2016-05-23T09:50:33.857Z,17464
2016-05-23T09:51:33.672Z,18188
2016-05-23T09:52:35.753Z,16300
2016-05-23T09:53:33.663Z,18636
2016-05-23T09:54:33.790Z,19076
2016-05-23T09:55:33.777Z,18640
2016-05-23T09:56:33.749Z,17964
2016-05-23T09:57:34.282Z,16964
2016-05-23T09:58:33.723Z,16680
2016-05-23T09:59:34.007Z,16772
2016-05-23T10:00:33.744Z,16028
2016-05-23T10:01:33.527Z,19028
2016-05-23T10:02:35.296Z,19420
2016-05-23T10:03:33.674Z,21088
2016-05-23T10:04:33.661Z,20096
2016-05-23T10:05:33.648Z,20576
2016-05-23T10:06:33.635Z,20512
2016-05-23T10:07:34.981Z,20480
2016-05-23T10:08:33.484Z,20064
2016-05-23T10:09:33.595Z,20224
2016-05-23T10:10:33.583Z,20000
2016-05-23T10:11:33.414Z,20384
2016-05-23T10:12:33.401Z,19400
2016-05-23T10:13:33.544Z,18596
2016-05-23T10:14:34.109Z,17796
2016-05-23T10:15:33.534Z,17148
2016-05-23T10:16:33.537Z,17084
2016-05-23T10:17:33.492Z,16168
2016-05-23T10:18:33.479Z,17696
2016-05-23T10:19:35.233Z,16724
2016-05-23T10:20:33.453Z,15580
2016-05-23T10:21:33.441Z,16420
2016-05-23T10:22:33.427Z,15324
2016-05-23T10:23:33.415Z,16584
2016-05-23T10:24:33.355Z,15976
2016-05-23T10:25:33.421Z,14764
2016-05-23T10:26:33.391Z,16576
2016-05-23T10:27:33.379Z,15180
2016-05-23T10:28:33.366Z,16272
2016-05-23T10:29:34.119Z,15948
2016-05-23T10:30:33.637Z,15456
2016-05-23T10:31:33.312Z,15216
2016-05-23T10:32:33.299Z,14716
2016-05-23T10:33:33.286Z,13620
2016-05-23T10:34:33.147Z,15024
2016-05-23T10:35:33.275Z,16116
2016-05-23T10:36:33.262Z,12704
2016-05-23T10:37:33.249Z,14396
2016-05-23T10:38:33.236Z,15920
2016-05-23T10:39:34.942Z,14328
2016-05-23T10:40:33.211Z,13640
2016-05-23T10:41:33.198Z,13576
2016-05-23T10:42:33.200Z,12860
2016-05-23T10:43:33.172Z,13316
2016-05-23T10:44:37.158Z,10436
2016-05-23T10:45:33.552Z,10632
2016-05-23T10:46:33.133Z,8900
2016-05-23T10:47:33.120Z,9976
2016-05-23T10:48:33.122Z,10584
2016-05-23T10:49:34.047Z,11068
2016-05-23T10:50:33.081Z,11324
2016-05-23T10:51:33.100Z,10848
2016-05-23T10:52:33.071Z,13092
2016-05-23T10:53:33.042Z,13104
2016-05-23T10:54:33.530Z,13980
2016-05-23T10:55:32.877Z,12588
2016-05-23T10:56:33.035Z,11924
2016-05-23T10:57:32.849Z,13692
2016-05-23T10:58:32.868Z,16224
2016-05-23T10:59:32.512Z,18076
2016-05-23T11:00:32.530Z,17024
2016-05-23T11:01:32.798Z,17380
2016-05-23T11:02:32.957Z,17256
2016-05-23T11:03:32.944Z,14108
2016-05-23T11:04:32.947Z,15724
2016-05-23T11:05:32.903Z,17528
2016-05-23T11:06:32.890Z,17064
2016-05-23T11:07:32.721Z,17456
2016-05-23T11:08:32.865Z,18976
2016-05-23T11:09:32.710Z,19100
2016-05-23T11:10:32.854Z,20352
2016-05-23T11:11:32.825Z,18780
2016-05-23T11:12:32.672Z,17228
2016-05-23T11:13:32.925Z,18660
2016-05-23T11:14:32.677Z,21312
2016-05-23T11:15:32.773Z,19200
2016-05-23T11:16:32.776Z,17824
2016-05-23T11:17:32.748Z,19416
2016-05-23T11:18:32.751Z,17076
2016-05-23T11:19:32.722Z,17300
2016-05-23T11:20:32.709Z,18076
2016-05-23T11:21:32.696Z,23392
2016-05-23T11:22:32.714Z,23520
2016-05-23T11:23:32.686Z,21824
2016-05-23T11:24:32.657Z,22368
2016-05-23T11:25:32.644Z,23360
2016-05-23T11:26:32.475Z,24928
2016-05-23T11:27:32.634Z,21792
2016-05-23T11:28:32.496Z,20992
2016-05-23T11:29:32.764Z,20352
2016-05-23T11:30:32.596Z,20192
2016-05-23T11:31:32.441Z,22848
2016-05-23T11:32:32.569Z,19072
2016-05-23T11:33:32.557Z,21888
2016-05-23T11:34:32.575Z,20672
2016-05-23T11:35:32.530Z,26240
2016-05-23T11:36:32.518Z,28224
2016-05-23T11:37:32.505Z,22016
2016-05-23T11:38:32.492Z,17308
2016-05-23T11:39:32.479Z,17532
2016-05-23T11:40:32.497Z,20800
2016-05-23T11:41:32.312Z,20576
2016-05-23T11:42:32.456Z,23616
2016-05-23T11:43:32.442Z,28096
2016-05-23T11:44:32.695Z,25312
2016-05-23T11:45:32.432Z,26784
2016-05-23T11:46:32.278Z,24608
2016-05-23T11:47:32.234Z,17248
2016-05-23T11:48:32.378Z,20160
2016-05-23T11:49:32.224Z,21568
2016-05-23T11:50:32.352Z,10232
2016-05-23T11:51:32.339Z,10628
2016-05-23T11:52:32.201Z,9516
2016-05-23T11:53:32.329Z,9660
2016-05-23T11:54:32.144Z,10956
2016-05-23T11:55:31.991Z,12748
2016-05-23T11:56:32.133Z,16772
2016-05-23T11:57:32.293Z,25184
2016-05-23T11:58:32.280Z,29536
2016-05-23T11:59:32.549Z,27040
2016-05-23T12:00:32.239Z,25472
2016-05-23T12:01:31.943Z,30112
2016-05-23T12:02:31.899Z,27680
2016-05-23T12:03:32.059Z,30112
2016-05-23T12:04:32.140Z,32192
2016-05-23T12:05:32.190Z,38208
2016-05-23T12:06:32.005Z,42656
2016-05-23T12:07:32.007Z,27040
2016-05-23T12:08:32.151Z,18116
2016-05-23T12:09:32.138Z,33152
2016-05-23T12:10:32.141Z,45568
2016-05-23T12:11:32.112Z,40928
2016-05-23T12:12:32.145Z,42592
2016-05-23T12:13:32.211Z,50528
2016-05-23T12:14:32.495Z,45184
2016-05-23T12:15:32.060Z,46656
2016-05-23T12:16:32.078Z,48096
2016-05-23T12:17:32.034Z,39680
2016-05-23T12:18:32.036Z,43872
2016-05-23T12:19:31.711Z,50464
2016-05-23T12:20:32.011Z,47040
2016-05-23T12:21:32.029Z,49696
2016-05-23T12:22:31.907Z,37344
2016-05-23T12:23:31.972Z,37280
2016-05-23T12:24:31.959Z,40032
2016-05-23T12:25:31.977Z,42144
2016-05-23T12:26:31.949Z,38144
2016-05-23T12:27:31.780Z,25728
2016-05-23T12:28:31.939Z,14076
2016-05-23T12:29:31.957Z,20096
2016-05-23T12:30:31.897Z,13768
2016-05-23T12:31:31.728Z,24256
2016-05-23T12:32:31.871Z,23168
2016-05-23T12:33:31.702Z,20032
2016-05-23T12:34:31.751Z,17676
2016-05-23T12:35:31.707Z,16412
2016-05-23T12:36:31.851Z,18816
2016-05-23T12:37:31.822Z,20864
2016-05-23T12:38:31.654Z,25056
2016-05-23T12:39:31.656Z,32768
2016-05-23T12:40:31.939Z,32896
2016-05-23T12:41:31.848Z,27200
2016-05-23T12:42:31.757Z,24736
2016-05-23T12:43:31.745Z,15464
2016-05-23T12:44:31.591Z,17364
2016-05-23T12:45:31.718Z,14008
2016-05-23T12:46:31.784Z,14344
2016-05-23T12:47:31.553Z,19196
2016-05-23T12:48:31.524Z,23712
2016-05-23T12:49:31.886Z,15528
2016-05-23T12:50:31.716Z,17048
2016-05-23T12:51:31.673Z,22208
2016-05-23T12:52:31.550Z,22528
2016-05-23T12:53:33.881Z,19872
2016-05-23T12:54:31.447Z,26560
2016-05-23T12:55:31.589Z,28384
2016-05-23T12:56:31.419Z,23168
2016-05-23T12:57:31.532Z,24480
2016-05-23T12:58:31.597Z,27616
2016-05-23T12:59:31.428Z,28032
2016-05-23T13:00:31.540Z,27776
2016-05-23T13:01:31.590Z,23488
2016-05-23T13:02:31.593Z,23040
2016-05-23T13:03:31.502Z,27136
2016-05-23T13:04:31.535Z,22784
2016-05-23T13:05:31.522Z,17340
2016-05-23T13:06:31.479Z,19840
2016-05-23T13:07:31.465Z,19616
2016-05-23T13:08:31.452Z,16948
2016-05-23T13:09:31.440Z,16064
2016-05-23T13:10:31.427Z,15348
2016-05-23T13:11:31.413Z,12776
2016-05-23T13:12:31.401Z,21664
2016-05-23T13:13:31.387Z,30176
2016-05-23T13:14:31.578Z,20096
2016-05-23T13:15:31.377Z,23840
2016-05-23T13:16:31.365Z,22304
2016-05-23T13:17:31.336Z,18168
2016-05-23T13:18:31.339Z,17684
2016-05-23T13:19:31.326Z,16012
2016-05-23T13:20:31.000Z,12136
2016-05-23T13:21:31.315Z,17916
2016-05-23T13:22:31.303Z,20512
2016-05-23T13:23:31.274Z,22816
2016-05-23T13:24:31.089Z,18564
2016-05-23T13:25:31.233Z,17656
2016-05-23T13:26:31.236Z,16672
2016-05-23T13:27:31.222Z,17900
2016-05-23T13:28:31.209Z,13340